sensor_id;sensor_type;location;lat;lon;timestamp;temperature;humidity
1453;DHT22;720;47.738;7.998;2022-09-16T00:01:33;13.60;99.90
1453;DHT22;720;47.738;7.998;2022-09-16T00:03:59;13.60;99.90
1453;DHT22;720;47.738;7.998;2022-09-16T00:06:27;13.60;99.90
1453;DHT22;720;47.738;7.998;2022-09-16T00:08:59;13.60;99.90
1453;DHT22;720;47.738;7.998;2022-09-16T00:11:26;13.60;99.90
1453;DHT22;720;47.738;7.998;2022-09-16T00:13:52;13.70;99.90
1453;DHT22;720;47.738;7.998;2022-09-16T00:16:20;13.70;99.90
1453;DHT22;720;47.738;7.998;2022-09-16T00:18:47;13.90;99.90
1453;DHT22;720;47.738;7.998;2022-09-16T00:21:13;13.90;99.90
1453;DHT22;720;47.738;7.998;2022-09-16T00:23:38;13.90;99.90
1453;DHT22;720;47.738;7.998;2022-09-16T00:26:04;13.90;99.90
1453;DHT22;720;47.738;7.998;2022-09-16T00:28:30;14.00;99.90
1453;DHT22;720;47.738;7.998;2022-09-16T00:30:59;13.90;99.90
1453;DHT22;720;47.738;7.998;2022-09-16T00:33:26;13.90;99.90
1453;DHT22;720;47.738;7.998;2022-09-16T00:35:51;13.90;99.90
1453;DHT22;720;47.738;7.998;2022-09-16T00:38:17;13.90;99.90
1453;DHT22;720;47.738;7.998;2022-09-16T00:40:47;15.00;99.90
1453;DHT22;720;47.738;7.998;2022-09-16T00:43:15;13.90;99.90
1453;DHT22;720;47.738;7.998;2022-09-16T00:45:44;14.00;99.90
1453;DHT22;720;47.738;7.998;2022-09-16T00:48:15;14.00;99.90
1453;DHT22;720;47.738;7.998;2022-09-16T00:50:47;13.90;99.90
1453;DHT22;720;47.738;7.998;2022-09-16T00:53:19;13.90;99.90
1453;DHT22;720;47.738;7.998;2022-09-16T00:55:47;13.80;99.90
1453;DHT22;720;47.738;7.998;2022-09-16T00:58:31;13.60;99.90
1453;DHT22;720;47.738;7.998;2022-09-16T01:00:59;13.70;99.90
1453;DHT22;720;47.738;7.998;2022-09-16T01:03:27;13.90;99.90
1453;DHT22;720;47.738;7.998;2022-09-16T01:05:54;13.70;99.90
1453;DHT22;720;47.738;7.998;2022-09-16T01:08:20;13.70;99.90
1453;DHT22;720;47.738;7.998;2022-09-16T01:10:46;13.70;99.90
1453;DHT22;720;47.738;7.998;2022-09-16T01:13:13;13.80;99.90
1453;DHT22;720;47.738;7.998;2022-09-16T01:15:50;13.80;99.90
1453;DHT22;720;47.738;7.998;2022-09-16T01:18:34;13.80;99.90
1453;DHT22;720;47.738;7.998;2022-09-16T01:21:20;13.80;99.90
1453;DHT22;720;47.738;7.998;2022-09-16T01:32:21;13.90;99.90
1453;DHT22;720;47.738;7.998;2022-09-16T01:37:52;13.50;99.90
1453;DHT22;720;47.738;7.998;2022-09-16T01:43:30;13.80;99.90
1453;DHT22;720;47.738;7.998;2022-09-16T01:51:47;13.60;99.90
1453;DHT22;720;47.738;7.998;2022-09-16T01:54:26;13.80;99.90
1453;DHT22;720;47.738;7.998;2022-09-16T02:00:08;13.80;99.90
1453;DHT22;720;47.738;7.998;2022-09-16T02:02:46;13.50;99.90
1453;DHT22;720;47.738;7.998;2022-09-16T02:05:21;13.70;99.90
1453;DHT22;720;47.738;7.998;2022-09-16T02:07:53;13.80;99.90
1453;DHT22;720;47.738;7.998;2022-09-16T02:10:27;13.40;99.90
1453;DHT22;720;47.738;7.998;2022-09-16T02:12:58;13.60;99.90
1453;DHT22;720;47.738;7.998;2022-09-16T02:15:25;13.60;99.90
1453;DHT22;720;47.738;7.998;2022-09-16T02:17:59;14.00;99.90
1453;DHT22;720;47.738;7.998;2022-09-16T02:20:27;13.80;99.90
1453;DHT22;720;47.738;7.998;2022-09-16T02:23:00;13.80;99.90
1453;DHT22;720;47.738;7.998;2022-09-16T02:25:28;13.80;99.90
1453;DHT22;720;47.738;7.998;2022-09-16T02:27:59;13.70;99.90
1453;DHT22;720;47.738;7.998;2022-09-16T02:32:57;13.80;99.90
1453;DHT22;720;47.738;7.998;2022-09-16T02:35:27;13.80;99.90
1453;DHT22;720;47.738;7.998;2022-09-16T02:38:05;14.00;99.90
1453;DHT22;720;47.738;7.998;2022-09-16T02:40:35;13.80;99.90
1453;DHT22;720;47.738;7.998;2022-09-16T02:43:02;13.90;99.90
1453;DHT22;720;47.738;7.998;2022-09-16T02:45:43;13.90;99.90
1453;DHT22;720;47.738;7.998;2022-09-16T02:53:53;13.90;99.90
1453;DHT22;720;47.738;7.998;2022-09-16T02:56:28;14.10;99.90
1453;DHT22;720;47.738;7.998;2022-09-16T02:58:55;13.90;99.90
1453;DHT22;720;47.738;7.998;2022-09-16T03:01:21;13.90;99.90
1453;DHT22;720;47.738;7.998;2022-09-16T03:03:49;13.90;99.90
1453;DHT22;720;47.738;7.998;2022-09-16T03:06:19;14.00;99.90
1453;DHT22;720;47.738;7.998;2022-09-16T03:08:45;13.90;99.90
1453;DHT22;720;47.738;7.998;2022-09-16T03:11:27;14.20;99.90
1453;DHT22;720;47.738;7.998;2022-09-16T03:14:08;13.90;99.90
1453;DHT22;720;47.738;7.998;2022-09-16T03:19:58;13.80;99.90
1453;DHT22;720;47.738;7.998;2022-09-16T03:22:50;13.70;99.90
1453;DHT22;720;47.738;7.998;2022-09-16T03:28:19;13.80;99.90
1453;DHT22;720;47.738;7.998;2022-09-16T03:31:03;13.80;99.90
1453;DHT22;720;47.738;7.998;2022-09-16T03:36:14;14.00;99.90
1453;DHT22;720;47.738;7.998;2022-09-16T03:38:43;14.10;99.90
1453;DHT22;720;47.738;7.998;2022-09-16T03:41:09;14.10;99.90
1453;DHT22;720;47.738;7.998;2022-09-16T03:43:35;14.10;99.90
1453;DHT22;720;47.738;7.998;2022-09-16T03:46:01;14.00;99.90
1453;DHT22;720;47.738;7.998;2022-09-16T03:48:27;14.10;99.90
1453;DHT22;720;47.738;7.998;2022-09-16T03:50:52;14.10;99.90
1453;DHT22;720;47.738;7.998;2022-09-16T03:53:18;14.20;99.90
1453;DHT22;720;47.738;7.998;2022-09-16T03:55:46;14.10;99.90
1453;DHT22;720;47.738;7.998;2022-09-16T03:58:12;14.20;99.90
1453;DHT22;720;47.738;7.998;2022-09-16T04:00:38;14.20;99.90
1453;DHT22;720;47.738;7.998;2022-09-16T04:03:03;14.20;99.90
1453;DHT22;720;47.738;7.998;2022-09-16T04:05:29;14.10;99.90
1453;DHT22;720;47.738;7.998;2022-09-16T04:07:55;14.00;99.90
1453;DHT22;720;47.738;7.998;2022-09-16T04:12:47;14.20;99.90
1453;DHT22;720;47.738;7.998;2022-09-16T04:15:12;14.10;99.90
1453;DHT22;720;47.738;7.998;2022-09-16T04:17:38;14.20;99.90
1453;DHT22;720;47.738;7.998;2022-09-16T04:20:04;14.10;99.90
1453;DHT22;720;47.738;7.998;2022-09-16T04:22:32;14.40;99.90
1453;DHT22;720;47.738;7.998;2022-09-16T04:24:57;14.40;99.90
1453;DHT22;720;47.738;7.998;2022-09-16T04:27:23;14.50;99.90
1453;DHT22;720;47.738;7.998;2022-09-16T04:29:49;14.10;99.90
1453;DHT22;720;47.738;7.998;2022-09-16T04:34:40;14.20;99.90
1453;DHT22;720;47.738;7.998;2022-09-16T04:39:33;14.60;99.90
1453;DHT22;720;47.738;7.998;2022-09-16T04:41:59;14.30;99.90
1453;DHT22;720;47.738;7.998;2022-09-16T04:44:25;14.30;99.90
1453;DHT22;720;47.738;7.998;2022-09-16T04:46:51;14.30;99.90
1453;DHT22;720;47.738;7.998;2022-09-16T04:49:17;14.40;99.90
1453;DHT22;720;47.738;7.998;2022-09-16T04:51:43;14.40;99.90
1453;DHT22;720;47.738;7.998;2022-09-16T04:54:09;14.40;99.90
1453;DHT22;720;47.738;7.998;2022-09-16T04:56:36;14.30;99.90
1453;DHT22;720;47.738;7.998;2022-09-16T04:59:03;14.40;99.90
1453;DHT22;720;47.738;7.998;2022-09-16T05:01:32;14.30;99.90
1453;DHT22;720;47.738;7.998;2022-09-16T05:04:00;14.30;99.90
1453;DHT22;720;47.738;7.998;2022-09-16T05:06:29;14.40;99.90
1453;DHT22;720;47.738;7.998;2022-09-16T05:08:56;14.40;99.90
1453;DHT22;720;47.738;7.998;2022-09-16T05:11:25;14.40;99.90
1453;DHT22;720;47.738;7.998;2022-09-16T05:13:52;14.50;99.90
1453;DHT22;720;47.738;7.998;2022-09-16T05:16:20;14.30;99.90
1453;DHT22;720;47.738;7.998;2022-09-16T05:18:47;14.60;99.90
1453;DHT22;720;47.738;7.998;2022-09-16T05:21:16;14.40;99.90
1453;DHT22;720;47.738;7.998;2022-09-16T05:23:43;14.40;99.90
1453;DHT22;720;47.738;7.998;2022-09-16T05:26:11;14.40;99.90
1453;DHT22;720;47.738;7.998;2022-09-16T05:28:37;14.50;99.90
1453;DHT22;720;47.738;7.998;2022-09-16T05:31:21;14.40;99.90
1453;DHT22;720;47.738;7.998;2022-09-16T05:36:22;15.30;99.90
1453;DHT22;720;47.738;7.998;2022-09-16T05:38:48;15.80;99.90
1453;DHT22;720;47.738;7.998;2022-09-16T05:41:14;16.10;99.90
1453;DHT22;720;47.738;7.998;2022-09-16T05:43:40;16.30;99.90
1453;DHT22;720;47.738;7.998;2022-09-16T05:46:06;16.20;99.90
1453;DHT22;720;47.738;7.998;2022-09-16T05:48:32;16.50;99.90
1453;DHT22;720;47.738;7.998;2022-09-16T05:51:04;16.30;99.90
1453;DHT22;720;47.738;7.998;2022-09-16T05:53:31;16.40;99.90
1453;DHT22;720;47.738;7.998;2022-09-16T05:56:05;16.50;99.90
1453;DHT22;720;47.738;7.998;2022-09-16T05:58:33;16.30;99.90
1453;DHT22;720;47.738;7.998;2022-09-16T06:01:01;16.20;99.90
1453;DHT22;720;47.738;7.998;2022-09-16T06:03:27;16.30;99.90
1453;DHT22;720;47.738;7.998;2022-09-16T06:06:00;16.40;99.90
1453;DHT22;720;47.738;7.998;2022-09-16T06:08:32;16.20;99.90
1453;DHT22;720;47.738;7.998;2022-09-16T06:11:02;16.60;99.90
1453;DHT22;720;47.738;7.998;2022-09-16T06:13:28;16.70;99.90
1453;DHT22;720;47.738;7.998;2022-09-16T06:18:21;17.40;99.90
1453;DHT22;720;47.738;7.998;2022-09-16T06:20:48;17.10;99.90
1453;DHT22;720;47.738;7.998;2022-09-16T06:23:14;17.30;99.90
1453;DHT22;720;47.738;7.998;2022-09-16T06:25:40;17.20;99.90
1453;DHT22;720;47.738;7.998;2022-09-16T06:28:05;16.60;99.90
1453;DHT22;720;47.738;7.998;2022-09-16T06:30:31;16.70;99.90
1453;DHT22;720;47.738;7.998;2022-09-16T06:32:57;16.50;99.90
1453;DHT22;720;47.738;7.998;2022-09-16T06:35:22;16.20;99.90
1453;DHT22;720;47.738;7.998;2022-09-16T06:37:48;16.00;99.90
1453;DHT22;720;47.738;7.998;2022-09-16T06:40:14;15.90;99.90
1453;DHT22;720;47.738;7.998;2022-09-16T06:42:39;15.80;99.90
1453;DHT22;720;47.738;7.998;2022-09-16T06:45:06;15.70;99.90
1453;DHT22;720;47.738;7.998;2022-09-16T06:47:31;15.60;99.90
1453;DHT22;720;47.738;7.998;2022-09-16T06:49:58;15.40;99.90
1453;DHT22;720;47.738;7.998;2022-09-16T06:52:24;15.30;99.90
1453;DHT22;720;47.738;7.998;2022-09-16T06:54:53;15.30;99.90
1453;DHT22;720;47.738;7.998;2022-09-16T06:57:22;15.20;99.90
1453;DHT22;720;47.738;7.998;2022-09-16T06:59:49;15.20;99.90
1453;DHT22;720;47.738;7.998;2022-09-16T07:02:15;15.20;99.90
1453;DHT22;720;47.738;7.998;2022-09-16T07:04:41;15.20;99.90
1453;DHT22;720;47.738;7.998;2022-09-16T07:07:06;15.30;99.90
1453;DHT22;720;47.738;7.998;2022-09-16T07:09:32;15.30;99.90
1453;DHT22;720;47.738;7.998;2022-09-16T07:11:58;15.20;99.90
1453;DHT22;720;47.738;7.998;2022-09-16T07:14:27;15.30;99.90
1453;DHT22;720;47.738;7.998;2022-09-16T07:19:19;15.20;99.90
1453;DHT22;720;47.738;7.998;2022-09-16T07:21:45;15.40;99.90
1453;DHT22;720;47.738;7.998;2022-09-16T07:24:12;15.40;99.90
1453;DHT22;720;47.738;7.998;2022-09-16T07:26:39;15.30;99.90
1453;DHT22;720;47.738;7.998;2022-09-16T07:29:06;15.40;99.90
1453;DHT22;720;47.738;7.998;2022-09-16T07:31:33;15.40;99.90
1453;DHT22;720;47.738;7.998;2022-09-16T07:34:00;15.40;99.90
1453;DHT22;720;47.738;7.998;2022-09-16T07:36:28;15.40;99.90
1453;DHT22;720;47.738;7.998;2022-09-16T07:38:55;15.40;99.90
1453;DHT22;720;47.738;7.998;2022-09-16T07:41:26;15.40;99.90
1453;DHT22;720;47.738;7.998;2022-09-16T07:43:53;15.40;99.90
1453;DHT22;720;47.738;7.998;2022-09-16T07:46:19;15.50;99.90
1453;DHT22;720;47.738;7.998;2022-09-16T07:48:47;15.50;99.90
1453;DHT22;720;47.738;7.998;2022-09-16T07:51:16;15.50;99.90
1453;DHT22;720;47.738;7.998;2022-09-16T07:53:42;15.60;99.90
1453;DHT22;720;47.738;7.998;2022-09-16T07:56:14;15.50;99.90
1453;DHT22;720;47.738;7.998;2022-09-16T07:58:41;15.50;99.90
1453;DHT22;720;47.738;7.998;2022-09-16T08:01:07;15.40;99.90
1453;DHT22;720;47.738;7.998;2022-09-16T08:03:35;15.50;99.90
1453;DHT22;720;47.738;7.998;2022-09-16T08:06:02;15.40;99.90
1453;DHT22;720;47.738;7.998;2022-09-16T08:08:29;15.50;99.90
1453;DHT22;720;47.738;7.998;2022-09-16T08:10:56;15.50;99.90
1453;DHT22;720;47.738;7.998;2022-09-16T08:13:23;15.70;99.90
1453;DHT22;720;47.738;7.998;2022-09-16T08:15:49;15.70;99.90
1453;DHT22;720;47.738;7.998;2022-09-16T08:18:15;15.80;99.90
1453;DHT22;720;47.738;7.998;2022-09-16T08:20:40;15.80;99.90
1453;DHT22;720;47.738;7.998;2022-09-16T08:25:32;15.70;99.90
1453;DHT22;720;47.738;7.998;2022-09-16T08:30:24;15.60;99.90
1453;DHT22;720;47.738;7.998;2022-09-16T08:32:57;15.30;99.90
1453;DHT22;720;47.738;7.998;2022-09-16T08:35:23;15.50;99.90
1453;DHT22;720;47.738;7.998;2022-09-16T08:37:50;15.40;99.90
1453;DHT22;720;47.738;7.998;2022-09-16T08:40:19;15.30;99.90
1453;DHT22;720;47.738;7.998;2022-09-16T08:43:09;15.10;99.90
1453;DHT22;720;47.738;7.998;2022-09-16T08:45:47;15.10;99.90
1453;DHT22;720;47.738;7.998;2022-09-16T08:48:26;15.10;99.90
1453;DHT22;720;47.738;7.998;2022-09-16T08:50:56;15.20;99.90
1453;DHT22;720;47.738;7.998;2022-09-16T08:53:55;15.20;99.90
1453;DHT22;720;47.738;7.998;2022-09-16T08:56:24;15.30;99.90
1453;DHT22;720;47.738;7.998;2022-09-16T08:58:54;15.40;99.90
1453;DHT22;720;47.738;7.998;2022-09-16T09:01:38;15.80;99.90
1453;DHT22;720;47.738;7.998;2022-09-16T09:04:05;17.20;99.90
1453;DHT22;720;47.738;7.998;2022-09-16T09:06:47;17.20;99.90
1453;DHT22;720;47.738;7.998;2022-09-16T09:45:27;18.10;98.70
1453;DHT22;720;47.738;7.998;2022-09-16T09:48:09;17.60;99.90
1453;DHT22;720;47.738;7.998;2022-09-16T09:50:43;17.40;98.80
1453;DHT22;720;47.738;7.998;2022-09-16T09:56:03;16.90;99.00
1453;DHT22;720;47.738;7.998;2022-09-16T09:58:39;16.90;98.70
1453;DHT22;720;47.738;7.998;2022-09-16T10:01:07;16.00;99.90
1453;DHT22;720;47.738;7.998;2022-09-16T10:03:35;16.40;99.90
1453;DHT22;720;47.738;7.998;2022-09-16T10:06:05;16.50;99.90
1453;DHT22;720;47.738;7.998;2022-09-16T10:08:43;17.00;99.90
1453;DHT22;720;47.738;7.998;2022-09-16T10:11:21;16.70;99.90
1453;DHT22;720;47.738;7.998;2022-09-16T10:13:58;16.60;99.90
1453;DHT22;720;47.738;7.998;2022-09-16T10:16:36;16.80;98.70
1453;DHT22;720;47.738;7.998;2022-09-16T10:19:24;16.50;99.10
1453;DHT22;720;47.738;7.998;2022-09-16T10:22:08;16.10;99.50
1453;DHT22;720;47.738;7.998;2022-09-16T10:27:28;15.90;99.90
1453;DHT22;720;47.738;7.998;2022-09-16T10:32:46;15.30;99.90
1453;DHT22;720;47.738;7.998;2022-09-16T10:35:22;15.30;99.90
1453;DHT22;720;47.738;7.998;2022-09-16T10:37:55;15.60;99.90
1453;DHT22;720;47.738;7.998;2022-09-16T10:40:22;15.70;99.90
1453;DHT22;720;47.738;7.998;2022-09-16T10:42:50;15.80;99.90
1453;DHT22;720;47.738;7.998;2022-09-16T10:45:37;15.60;99.90
1453;DHT22;720;47.738;7.998;2022-09-16T10:48:14;15.80;99.90
1453;DHT22;720;47.738;7.998;2022-09-16T10:51:01;16.10;99.90
1453;DHT22;720;47.738;7.998;2022-09-16T10:53:35;16.10;99.60
1453;DHT22;720;47.738;7.998;2022-09-16T10:56:03;16.20;99.80
1453;DHT22;720;47.738;7.998;2022-09-16T11:06:41;16.30;99.90
1453;DHT22;720;47.738;7.998;2022-09-16T11:35:38;17.10;98.20
1453;DHT22;720;47.738;7.998;2022-09-16T11:43:40;16.70;99.90
1453;DHT22;720;47.738;7.998;2022-09-16T11:57:03;16.90;97.90
1453;DHT22;720;47.738;7.998;2022-09-16T11:59:47;17.30;98.70
1453;DHT22;720;47.738;7.998;2022-09-16T12:02:33;17.20;99.90
1453;DHT22;720;47.738;7.998;2022-09-16T12:13:34;17.80;99.90
1453;DHT22;720;47.738;7.998;2022-09-16T12:16:03;18.00;99.90
1453;DHT22;720;47.738;7.998;2022-09-16T12:18:33;17.40;99.90
1453;DHT22;720;47.738;7.998;2022-09-16T12:21:09;17.30;95.50
1453;DHT22;720;47.738;7.998;2022-09-16T12:23:45;17.10;99.90
1453;DHT22;720;47.738;7.998;2022-09-16T12:26:19;16.50;99.90
1453;DHT22;720;47.738;7.998;2022-09-16T12:31:20;16.10;99.90
1453;DHT22;720;47.738;7.998;2022-09-16T12:33:57;16.10;99.90
1453;DHT22;720;47.738;7.998;2022-09-16T12:36:28;16.00;98.20
1453;DHT22;720;47.738;7.998;2022-09-16T12:38:58;15.30;99.90
1453;DHT22;720;47.738;7.998;2022-09-16T12:41:48;15.80;98.60
1453;DHT22;720;47.738;7.998;2022-09-16T12:55:43;14.70;98.60
1453;DHT22;720;47.738;7.998;2022-09-16T13:03:41;13.70;99.90
1453;DHT22;720;47.738;7.998;2022-09-16T13:06:27;13.70;99.90
1453;DHT22;720;47.738;7.998;2022-09-16T13:08:55;14.10;99.90
1453;DHT22;720;47.738;7.998;2022-09-16T13:11:23;14.30;99.90
1453;DHT22;720;47.738;7.998;2022-09-16T13:13:52;13.80;99.90
1453;DHT22;720;47.738;7.998;2022-09-16T13:16:35;14.10;99.90
1453;DHT22;720;47.738;7.998;2022-09-16T13:21:41;14.20;99.90
1453;DHT22;720;47.738;7.998;2022-09-16T13:29:39;15.20;98.10
1453;DHT22;720;47.738;7.998;2022-09-16T13:32:35;16.00;99.90
1453;DHT22;720;47.738;7.998;2022-09-16T13:37:58;15.40;99.90
1453;DHT22;720;47.738;7.998;2022-09-16T13:40:27;15.60;97.60
1453;DHT22;720;47.738;7.998;2022-09-16T13:45:42;15.30;96.70
1453;DHT22;720;47.738;7.998;2022-09-16T13:48:18;15.60;99.90
1453;DHT22;720;47.738;7.998;2022-09-16T13:50:49;15.30;99.80
1453;DHT22;720;47.738;7.998;2022-09-16T13:53:27;15.40;98.50
1453;DHT22;720;47.738;7.998;2022-09-16T13:56:05;15.00;99.90
1453;DHT22;720;47.738;7.998;2022-09-16T13:58:37;15.10;99.90
1453;DHT22;720;47.738;7.998;2022-09-16T14:08:52;14.60;99.90
1453;DHT22;720;47.738;7.998;2022-09-16T14:11:47;14.60;99.90
1453;DHT22;720;47.738;7.998;2022-09-16T14:14:21;14.50;99.90
1453;DHT22;720;47.738;7.998;2022-09-16T14:16:47;14.70;99.90
1453;DHT22;720;47.738;7.998;2022-09-16T14:24:15;14.30;99.90
1453;DHT22;720;47.738;7.998;2022-09-16T14:26:51;14.70;99.90
1453;DHT22;720;47.738;7.998;2022-09-16T14:29:17;15.00;99.90
1453;DHT22;720;47.738;7.998;2022-09-16T14:31:43;14.90;99.90
1453;DHT22;720;47.738;7.998;2022-09-16T14:34:14;15.00;99.90
1453;DHT22;720;47.738;7.998;2022-09-16T14:36:41;15.10;99.90
1453;DHT22;720;47.738;7.998;2022-09-16T14:39:16;15.30;99.90
1453;DHT22;720;47.738;7.998;2022-09-16T14:41:54;15.30;99.90
1453;DHT22;720;47.738;7.998;2022-09-16T14:44:25;15.30;99.90
1453;DHT22;720;47.738;7.998;2022-09-16T14:47:05;15.30;99.90
1453;DHT22;720;47.738;7.998;2022-09-16T14:49:35;14.80;99.90
1453;DHT22;720;47.738;7.998;2022-09-16T14:52:01;14.80;99.90
1453;DHT22;720;47.738;7.998;2022-09-16T14:54:28;14.80;99.90
1453;DHT22;720;47.738;7.998;2022-09-16T14:57:21;14.70;99.90
1453;DHT22;720;47.738;7.998;2022-09-16T14:59:49;14.60;99.90
1453;DHT22;720;47.738;7.998;2022-09-16T15:02:37;14.30;99.90
1453;DHT22;720;47.738;7.998;2022-09-16T15:05:34;14.20;99.90
1453;DHT22;720;47.738;7.998;2022-09-16T15:10:51;14.10;99.90
1453;DHT22;720;47.738;7.998;2022-09-16T15:13:26;14.20;99.90
1453;DHT22;720;47.738;7.998;2022-09-16T15:16:19;14.10;99.90
1453;DHT22;720;47.738;7.998;2022-09-16T15:19:02;14.20;99.90
1453;DHT22;720;47.738;7.998;2022-09-16T15:21:31;14.00;99.10
1453;DHT22;720;47.738;7.998;2022-09-16T15:24:00;13.90;99.90
1453;DHT22;720;47.738;7.998;2022-09-16T15:26:43;13.30;99.90
1453;DHT22;720;47.738;7.998;2022-09-16T15:31:47;13.80;99.90
1453;DHT22;720;47.738;7.998;2022-09-16T15:36:47;13.40;99.90
1453;DHT22;720;47.738;7.998;2022-09-16T15:39:33;13.50;99.90
1453;DHT22;720;47.738;7.998;2022-09-16T15:42:18;13.60;99.90
1453;DHT22;720;47.738;7.998;2022-09-16T15:44:56;13.30;99.90
1453;DHT22;720;47.738;7.998;2022-09-16T15:47:25;13.50;99.90
1453;DHT22;720;47.738;7.998;2022-09-16T15:50:13;13.40;99.90
1453;DHT22;720;47.738;7.998;2022-09-16T15:53:02;13.50;99.90
1453;DHT22;720;47.738;7.998;2022-09-16T15:55:40;13.80;99.90
1453;DHT22;720;47.738;7.998;2022-09-16T15:58:12;13.30;99.90
1453;DHT22;720;47.738;7.998;2022-09-16T16:03:20;13.60;99.90
1453;DHT22;720;47.738;7.998;2022-09-16T16:05:50;13.40;99.90
1453;DHT22;720;47.738;7.998;2022-09-16T16:08:37;13.40;99.90
1453;DHT22;720;47.738;7.998;2022-09-16T16:11:11;13.40;99.90
1453;DHT22;720;47.738;7.998;2022-09-16T16:13:37;13.30;99.90
1453;DHT22;720;47.738;7.998;2022-09-16T16:16:06;13.10;99.90
1453;DHT22;720;47.738;7.998;2022-09-16T16:18:33;12.60;99.90
1453;DHT22;720;47.738;7.998;2022-09-16T16:21:04;12.60;99.90
1453;DHT22;720;47.738;7.998;2022-09-16T16:23:30;12.50;99.90
1453;DHT22;720;47.738;7.998;2022-09-16T16:30:48;12.00;99.90
1453;DHT22;720;47.738;7.998;2022-09-16T16:33:14;11.50;99.90
1453;DHT22;720;47.738;7.998;2022-09-16T16:38:06;11.80;99.90
1453;DHT22;720;47.738;7.998;2022-09-16T16:40:32;11.60;99.90
1453;DHT22;720;47.738;7.998;2022-09-16T16:42:57;11.60;99.90
1453;DHT22;720;47.738;7.998;2022-09-16T16:50:15;11.90;99.90
1453;DHT22;720;47.738;7.998;2022-09-16T16:52:40;11.50;99.90
1453;DHT22;720;47.738;7.998;2022-09-16T16:57:32;11.80;99.90
1453;DHT22;720;47.738;7.998;2022-09-16T17:02:24;11.90;99.90
1453;DHT22;720;47.738;7.998;2022-09-16T17:04:50;12.30;99.90
1453;DHT22;720;47.738;7.998;2022-09-16T17:07:16;12.20;99.90
1453;DHT22;720;47.738;7.998;2022-09-16T17:12:08;11.80;99.90
1453;DHT22;720;47.738;7.998;2022-09-16T17:14:34;11.70;99.90
1453;DHT22;720;47.738;7.998;2022-09-16T17:19:27;12.00;99.90
1453;DHT22;720;47.738;7.998;2022-09-16T17:21:53;11.90;99.90
1453;DHT22;720;47.738;7.998;2022-09-16T17:24:20;11.50;99.90
1453;DHT22;720;47.738;7.998;2022-09-16T17:26:46;11.70;99.90
1453;DHT22;720;47.738;7.998;2022-09-16T17:29:12;12.10;99.90
1453;DHT22;720;47.738;7.998;2022-09-16T17:31:40;11.90;99.90
1453;DHT22;720;47.738;7.998;2022-09-16T17:34:08;11.70;99.90
1453;DHT22;720;47.738;7.998;2022-09-16T17:36:38;11.70;99.90
1453;DHT22;720;47.738;7.998;2022-09-16T17:39:09;11.50;99.90
1453;DHT22;720;47.738;7.998;2022-09-16T17:41:35;10.90;99.90
1453;DHT22;720;47.738;7.998;2022-09-16T17:44:07;11.20;99.90
1453;DHT22;720;47.738;7.998;2022-09-16T17:46:33;11.50;99.90
1453;DHT22;720;47.738;7.998;2022-09-16T17:49:04;11.40;99.90
1453;DHT22;720;47.738;7.998;2022-09-16T17:51:31;11.40;99.90
1453;DHT22;720;47.738;7.998;2022-09-16T17:53:57;11.20;99.90
1453;DHT22;720;47.738;7.998;2022-09-16T17:58:51;11.10;99.90
1453;DHT22;720;47.738;7.998;2022-09-16T18:01:22;11.00;99.90
1453;DHT22;720;47.738;7.998;2022-09-16T18:03:50;11.20;99.90
1453;DHT22;720;47.738;7.998;2022-09-16T18:06:19;10.90;99.90
1453;DHT22;720;47.738;7.998;2022-09-16T18:08:45;10.80;99.90
1453;DHT22;720;47.738;7.998;2022-09-16T18:11:12;10.80;99.90
1453;DHT22;720;47.738;7.998;2022-09-16T18:13:39;10.60;99.90
1453;DHT22;720;47.738;7.998;2022-09-16T18:16:09;10.70;99.90
1453;DHT22;720;47.738;7.998;2022-09-16T18:18:36;10.70;99.90
1453;DHT22;720;47.738;7.998;2022-09-16T18:21:04;10.60;99.90
1453;DHT22;720;47.738;7.998;2022-09-16T18:23:30;10.60;99.90
1453;DHT22;720;47.738;7.998;2022-09-16T18:25:56;10.50;99.90
1453;DHT22;720;47.738;7.998;2022-09-16T18:28:22;10.70;99.90
1453;DHT22;720;47.738;7.998;2022-09-16T18:30:59;10.90;99.90
1453;DHT22;720;47.738;7.998;2022-09-16T18:33:25;10.70;99.90
1453;DHT22;720;47.738;7.998;2022-09-16T18:35:59;10.30;99.90
1453;DHT22;720;47.738;7.998;2022-09-16T18:38:27;10.40;99.90
1453;DHT22;720;47.738;7.998;2022-09-16T18:41:09;10.50;99.90
1453;DHT22;720;47.738;7.998;2022-09-16T18:43:36;10.30;99.90
1453;DHT22;720;47.738;7.998;2022-09-16T18:48:31;10.40;99.90
1453;DHT22;720;47.738;7.998;2022-09-16T18:50:57;10.40;99.90
1453;DHT22;720;47.738;7.998;2022-09-16T18:53:23;10.40;99.90
1453;DHT22;720;47.738;7.998;2022-09-16T18:55:51;10.50;99.90
1453;DHT22;720;47.738;7.998;2022-09-16T18:58:17;10.70;99.90
1453;DHT22;720;47.738;7.998;2022-09-16T19:03:16;10.70;99.90
1453;DHT22;720;47.738;7.998;2022-09-16T19:05:41;10.80;99.90
1453;DHT22;720;47.738;7.998;2022-09-16T19:10:33;11.10;99.90
1453;DHT22;720;47.738;7.998;2022-09-16T19:15:26;11.00;99.90
1453;DHT22;720;47.738;7.998;2022-09-16T19:17:54;11.30;99.90
1453;DHT22;720;47.738;7.998;2022-09-16T19:20:19;11.20;99.90
1453;DHT22;720;47.738;7.998;2022-09-16T19:22:45;11.20;99.90
1453;DHT22;720;47.738;7.998;2022-09-16T19:25:11;11.40;99.90
1453;DHT22;720;47.738;7.998;2022-09-16T19:27:37;11.50;99.90
1453;DHT22;720;47.738;7.998;2022-09-16T19:30:04;11.30;99.90
1453;DHT22;720;47.738;7.998;2022-09-16T19:32:30;11.30;99.90
1453;DHT22;720;47.738;7.998;2022-09-16T19:37:22;11.40;99.90
1453;DHT22;720;47.738;7.998;2022-09-16T19:39:48;11.60;99.90
1453;DHT22;720;47.738;7.998;2022-09-16T19:42:14;11.40;99.90
1453;DHT22;720;47.738;7.998;2022-09-16T19:44:40;11.20;99.90
1453;DHT22;720;47.738;7.998;2022-09-16T19:51:57;11.40;99.90
1453;DHT22;720;47.738;7.998;2022-09-16T19:54:23;11.40;99.90
1453;DHT22;720;47.738;7.998;2022-09-16T19:59:15;11.40;99.90
1453;DHT22;720;47.738;7.998;2022-09-16T20:04:08;11.40;99.90
1453;DHT22;720;47.738;7.998;2022-09-16T20:06:39;11.20;99.90
1453;DHT22;720;47.738;7.998;2022-09-16T20:09:09;11.10;99.90
1453;DHT22;720;47.738;7.998;2022-09-16T20:11:44;10.70;99.90
1453;DHT22;720;47.738;7.998;2022-09-16T20:14:13;10.90;99.90
1453;DHT22;720;47.738;7.998;2022-09-16T20:16:40;10.80;99.90
1453;DHT22;720;47.738;7.998;2022-09-16T20:19:10;10.90;99.90
1453;DHT22;720;47.738;7.998;2022-09-16T20:21:36;10.90;99.90
1453;DHT22;720;47.738;7.998;2022-09-16T20:24:08;10.90;99.90
1453;DHT22;720;47.738;7.998;2022-09-16T20:26:37;11.10;99.90
1453;DHT22;720;47.738;7.998;2022-09-16T20:29:03;10.90;99.90
1453;DHT22;720;47.738;7.998;2022-09-16T20:31:34;11.00;99.90
1453;DHT22;720;47.738;7.998;2022-09-16T20:34:01;11.00;99.90
1453;DHT22;720;47.738;7.998;2022-09-16T20:36:28;10.90;99.90
1453;DHT22;720;47.738;7.998;2022-09-16T20:38:58;8.70;99.90
1453;DHT22;720;47.738;7.998;2022-09-16T20:41:26;11.00;99.90
1453;DHT22;720;47.738;7.998;2022-09-16T20:43:55;11.00;99.90
1453;DHT22;720;47.738;7.998;2022-09-16T20:46:25;11.10;99.90
1453;DHT22;720;47.738;7.998;2022-09-16T20:48:56;11.40;99.90
1453;DHT22;720;47.738;7.998;2022-09-16T20:51:24;11.20;99.90
1453;DHT22;720;47.738;7.998;2022-09-16T20:53:54;11.10;99.90
1453;DHT22;720;47.738;7.998;2022-09-16T20:56:20;11.20;99.90
1453;DHT22;720;47.738;7.998;2022-09-16T20:58:46;11.30;99.90
1453;DHT22;720;47.738;7.998;2022-09-16T21:01:31;11.10;99.90
1453;DHT22;720;47.738;7.998;2022-09-16T21:03:58;11.00;99.90